sensor_id;sensor_type;location;lat;lon;timestamp;temperature;humidity
34873;DHT22;21084;51.098;14.506;2022-09-09T00:02:01;11.70;99.90
34873;DHT22;21084;51.098;14.506;2022-09-09T00:04:32;11.80;99.90
34873;DHT22;21084;51.098;14.506;2022-09-09T00:07:03;11.70;99.90
34873;DHT22;21084;51.098;14.506;2022-09-09T00:09:40;11.60;99.90
34873;DHT22;21084;51.098;14.506;2022-09-09T00:12:15;11.60;99.90
34873;DHT22;21084;51.098;14.506;2022-09-09T00:14:51;11.60;99.90
34873;DHT22;21084;51.098;14.506;2022-09-09T00:17:32;11.60;99.90
34873;DHT22;21084;51.098;14.506;2022-09-09T00:20:05;11.60;99.90
34873;DHT22;21084;51.098;14.506;2022-09-09T00:22:43;11.60;99.90
34873;DHT22;21084;51.098;14.506;2022-09-09T00:25:27;11.50;99.90
34873;DHT22;21084;51.098;14.506;2022-09-09T00:27:56;11.60;99.90
34873;DHT22;21084;51.098;14.506;2022-09-09T00:30:28;11.50;99.90
34873;DHT22;21084;51.098;14.506;2022-09-09T00:33:00;11.60;99.90
34873;DHT22;21084;51.098;14.506;2022-09-09T00:35:32;11.50;99.90
34873;DHT22;21084;51.098;14.506;2022-09-09T00:38:10;11.50;99.90
34873;DHT22;21084;51.098;14.506;2022-09-09T00:40:48;11.50;99.90
34873;DHT22;21084;51.098;14.506;2022-09-09T00:43:26;11.50;99.90
34873;DHT22;21084;51.098;14.506;2022-09-09T00:46:13;11.50;99.90
34873;DHT22;21084;51.098;14.506;2022-09-09T00:48:50;11.50;99.90
34873;DHT22;21084;51.098;14.506;2022-09-09T00:51:27;11.50;99.90
34873;DHT22;21084;51.098;14.506;2022-09-09T00:54:15;11.40;99.90
34873;DHT22;21084;51.098;14.506;2022-09-09T00:56:53;11.40;99.90
34873;DHT22;21084;51.098;14.506;2022-09-09T00:59:42;11.40;99.90
34873;DHT22;21084;51.098;14.506;2022-09-09T01:02:21;11.40;99.90
34873;DHT22;21084;51.098;14.506;2022-09-09T01:04:53;11.30;99.90
34873;DHT22;21084;51.098;14.506;2022-09-09T01:07:22;11.30;99.90
34873;DHT22;21084;51.098;14.506;2022-09-09T01:09:56;11.20;99.90
34873;DHT22;21084;51.098;14.506;2022-09-09T01:12:29;11.20;99.90
34873;DHT22;21084;51.098;14.506;2022-09-09T01:15:07;11.30;99.90
34873;DHT22;21084;51.098;14.506;2022-09-09T01:17:46;11.20;99.90
34873;DHT22;21084;51.098;14.506;2022-09-09T01:20:20;11.20;99.90
34873;DHT22;21084;51.098;14.506;2022-09-09T01:23:06;11.20;99.90
34873;DHT22;21084;51.098;14.506;2022-09-09T01:26:09;11.10;99.90
34873;DHT22;21084;51.098;14.506;2022-09-09T01:28:40;11.10;99.90
34873;DHT22;21084;51.098;14.506;2022-09-09T01:31:14;11.10;99.90
34873;DHT22;21084;51.098;14.506;2022-09-09T01:33:44;11.00;99.90
34873;DHT22;21084;51.098;14.506;2022-09-09T01:36:15;11.10;99.90
34873;DHT22;21084;51.098;14.506;2022-09-09T01:38:46;11.10;99.90
34873;DHT22;21084;51.098;14.506;2022-09-09T01:41:16;11.00;99.90
34873;DHT22;21084;51.098;14.506;2022-09-09T01:43:45;11.00;99.90
34873;DHT22;21084;51.098;14.506;2022-09-09T01:46:13;11.00;99.90
34873;DHT22;21084;51.098;14.506;2022-09-09T01:48:41;11.00;99.90
34873;DHT22;21084;51.098;14.506;2022-09-09T01:51:10;11.00;99.90
34873;DHT22;21084;51.098;14.506;2022-09-09T01:53:41;11.10;99.90
34873;DHT22;21084;51.098;14.506;2022-09-09T01:56:20;11.00;99.90
34873;DHT22;21084;51.098;14.506;2022-09-09T01:59:03;11.00;99.90
34873;DHT22;21084;51.098;14.506;2022-09-09T02:01:51;10.90;99.90
34873;DHT22;21084;51.098;14.506;2022-09-09T02:04:31;11.00;99.90
34873;DHT22;21084;51.098;14.506;2022-09-09T02:07:10;10.90;99.90
34873;DHT22;21084;51.098;14.506;2022-09-09T02:09:44;11.00;99.90
34873;DHT22;21084;51.098;14.506;2022-09-09T02:12:18;10.90;99.90
34873;DHT22;21084;51.098;14.506;2022-09-09T02:14:52;10.90;99.90
34873;DHT22;21084;51.098;14.506;2022-09-09T02:17:28;10.90;99.90
34873;DHT22;21084;51.098;14.506;2022-09-09T02:20:03;10.80;99.90
34873;DHT22;21084;51.098;14.506;2022-09-09T02:22:33;10.80;99.90
34873;DHT22;21084;51.098;14.506;2022-09-09T02:25:02;10.70;99.90
34873;DHT22;21084;51.098;14.506;2022-09-09T02:27:34;10.70;99.90
34873;DHT22;21084;51.098;14.506;2022-09-09T02:30:06;10.70;99.90
34873;DHT22;21084;51.098;14.506;2022-09-09T02:32:37;10.80;99.90
34873;DHT22;21084;51.098;14.506;2022-09-09T02:35:10;10.70;99.90
34873;DHT22;21084;51.098;14.506;2022-09-09T02:37:43;10.70;99.90
34873;DHT22;21084;51.098;14.506;2022-09-09T02:40:14;10.70;99.90
34873;DHT22;21084;51.098;14.506;2022-09-09T02:42:45;10.70;99.90
34873;DHT22;21084;51.098;14.506;2022-09-09T02:45:16;10.70;99.90
34873;DHT22;21084;51.098;14.506;2022-09-09T02:47:50;10.70;99.90
34873;DHT22;21084;51.098;14.506;2022-09-09T02:50:24;10.70;99.90
34873;DHT22;21084;51.098;14.506;2022-09-09T02:53:02;10.60;99.90
34873;DHT22;21084;51.098;14.506;2022-09-09T02:55:38;10.60;99.90
34873;DHT22;21084;51.098;14.506;2022-09-09T02:58:12;10.60;99.90
34873;DHT22;21084;51.098;14.506;2022-09-09T03:00:45;10.60;99.90
34873;DHT22;21084;51.098;14.506;2022-09-09T03:03:14;10.60;99.90
34873;DHT22;21084;51.098;14.506;2022-09-09T03:05:44;10.60;99.90
34873;DHT22;21084;51.098;14.506;2022-09-09T03:08:12;10.50;99.90
34873;DHT22;21084;51.098;14.506;2022-09-09T03:10:43;10.50;99.90
34873;DHT22;21084;51.098;14.506;2022-09-09T03:13:12;10.40;99.90
34873;DHT22;21084;51.098;14.506;2022-09-09T03:15:43;10.30;99.90
34873;DHT22;21084;51.098;14.506;2022-09-09T03:18:12;10.40;99.90
34873;DHT22;21084;51.098;14.506;2022-09-09T03:20:40;10.30;99.90
34873;DHT22;21084;51.098;14.506;2022-09-09T03:23:09;10.30;99.90
34873;DHT22;21084;51.098;14.506;2022-09-09T03:25:46;10.40;99.90
34873;DHT22;21084;51.098;14.506;2022-09-09T03:28:16;10.40;99.90
34873;DHT22;21084;51.098;14.506;2022-09-09T03:30:44;10.40;99.90
34873;DHT22;21084;51.098;14.506;2022-09-09T03:33:12;10.30;99.90
34873;DHT22;21084;51.098;14.506;2022-09-09T03:35:44;10.20;99.90
34873;DHT22;21084;51.098;14.506;2022-09-09T03:38:15;10.30;99.90
34873;DHT22;21084;51.098;14.506;2022-09-09T03:40:49;10.30;99.90
34873;DHT22;21084;51.098;14.506;2022-09-09T03:43:26;10.30;99.90
34873;DHT22;21084;51.098;14.506;2022-09-09T03:45:54;10.20;99.90
34873;DHT22;21084;51.098;14.506;2022-09-09T03:48:24;10.30;99.90
34873;DHT22;21084;51.098;14.506;2022-09-09T03:50:55;10.30;99.90
34873;DHT22;21084;51.098;14.506;2022-09-09T03:53:24;10.30;99.90
34873;DHT22;21084;51.098;14.506;2022-09-09T03:55:54;10.30;99.90
34873;DHT22;21084;51.098;14.506;2022-09-09T03:58:25;10.30;99.90
34873;DHT22;21084;51.098;14.506;2022-09-09T04:00:55;10.30;99.90
34873;DHT22;21084;51.098;14.506;2022-09-09T04:03:23;10.30;99.90
34873;DHT22;21084;51.098;14.506;2022-09-09T04:05:55;10.30;99.90
34873;DHT22;21084;51.098;14.506;2022-09-09T04:08:25;10.30;99.90
34873;DHT22;21084;51.098;14.506;2022-09-09T04:10:54;10.30;99.90
34873;DHT22;21084;51.098;14.506;2022-09-09T04:13:27;10.20;99.90
34873;DHT22;21084;51.098;14.506;2022-09-09T04:15:58;10.20;99.90
34873;DHT22;21084;51.098;14.506;2022-09-09T04:18:28;10.20;99.90
34873;DHT22;21084;51.098;14.506;2022-09-09T04:20:56;10.20;99.90
34873;DHT22;21084;51.098;14.506;2022-09-09T04:23:25;10.20;99.90
34873;DHT22;21084;51.098;14.506;2022-09-09T04:25:57;10.20;99.90
34873;DHT22;21084;51.098;14.506;2022-09-09T04:28:28;10.30;99.90
34873;DHT22;21084;51.098;14.506;2022-09-09T04:31:05;10.30;99.90
34873;DHT22;21084;51.098;14.506;2022-09-09T04:33:33;10.30;99.90
34873;DHT22;21084;51.098;14.506;2022-09-09T04:36:07;10.30;99.90
34873;DHT22;21084;51.098;14.506;2022-09-09T04:38:37;10.40;99.90
34873;DHT22;21084;51.098;14.506;2022-09-09T04:41:06;10.40;99.90
34873;DHT22;21084;51.098;14.506;2022-09-09T04:43:39;10.50;99.90
34873;DHT22;21084;51.098;14.506;2022-09-09T04:46:10;10.50;99.90
34873;DHT22;21084;51.098;14.506;2022-09-09T04:48:41;10.60;99.90
34873;DHT22;21084;51.098;14.506;2022-09-09T04:51:13;10.60;99.90
34873;DHT22;21084;51.098;14.506;2022-09-09T04:53:44;10.70;99.90
34873;DHT22;21084;51.098;14.506;2022-09-09T04:56:17;10.70;99.90
34873;DHT22;21084;51.098;14.506;2022-09-09T04:58:49;10.80;99.90
34873;DHT22;21084;51.098;14.506;2022-09-09T05:01:19;10.80;99.90
34873;DHT22;21084;51.098;14.506;2022-09-09T05:03:56;10.90;99.90
34873;DHT22;21084;51.098;14.506;2022-09-09T05:06:25;11.00;99.90
34873;DHT22;21084;51.098;14.506;2022-09-09T05:08:54;11.10;99.90
34873;DHT22;21084;51.098;14.506;2022-09-09T05:11:24;11.30;99.90
34873;DHT22;21084;51.098;14.506;2022-09-09T05:13:54;11.40;99.90
34873;DHT22;21084;51.098;14.506;2022-09-09T05:16:25;11.50;99.90
34873;DHT22;21084;51.098;14.506;2022-09-09T05:18:54;11.60;99.90
34873;DHT22;21084;51.098;14.506;2022-09-09T05:21:24;11.70;99.90
34873;DHT22;21084;51.098;14.506;2022-09-09T05:23:54;11.90;99.90
34873;DHT22;21084;51.098;14.506;2022-09-09T05:26:23;12.10;99.90
34873;DHT22;21084;51.098;14.506;2022-09-09T05:28:54;12.20;99.90
34873;DHT22;21084;51.098;14.506;2022-09-09T05:31:22;12.30;99.90
34873;DHT22;21084;51.098;14.506;2022-09-09T05:34:02;12.40;99.90
34873;DHT22;21084;51.098;14.506;2022-09-09T05:36:31;12.50;99.90
34873;DHT22;21084;51.098;14.506;2022-09-09T05:39:04;12.60;99.90
34873;DHT22;21084;51.098;14.506;2022-09-09T05:41:32;12.70;99.90
34873;DHT22;21084;51.098;14.506;2022-09-09T05:44:03;12.90;99.90
34873;DHT22;21084;51.098;14.506;2022-09-09T05:46:32;13.00;99.90
34873;DHT22;21084;51.098;14.506;2022-09-09T05:49:02;13.20;99.90
34873;DHT22;21084;51.098;14.506;2022-09-09T05:51:32;13.40;99.90
34873;DHT22;21084;51.098;14.506;2022-09-09T05:54:03;13.60;99.90
34873;DHT22;21084;51.098;14.506;2022-09-09T05:56:34;13.80;99.90
34873;DHT22;21084;51.098;14.506;2022-09-09T05:59:06;14.00;99.90
34873;DHT22;21084;51.098;14.506;2022-09-09T06:01:36;14.20;99.90
34873;DHT22;21084;51.098;14.506;2022-09-09T06:04:07;14.40;99.90
34873;DHT22;21084;51.098;14.506;2022-09-09T06:06:37;14.50;99.90
34873;DHT22;21084;51.098;14.506;2022-09-09T06:09:08;14.60;99.90
34873;DHT22;21084;51.098;14.506;2022-09-09T06:11:38;14.70;99.90
34873;DHT22;21084;51.098;14.506;2022-09-09T06:14:09;15.00;99.90
34873;DHT22;21084;51.098;14.506;2022-09-09T06:16:48;15.20;99.90
34873;DHT22;21084;51.098;14.506;2022-09-09T06:19:16;15.40;99.90
34873;DHT22;21084;51.098;14.506;2022-09-09T06:21:47;15.60;99.90
34873;DHT22;21084;51.098;14.506;2022-09-09T06:24:17;15.60;99.90
34873;DHT22;21084;51.098;14.506;2022-09-09T06:26:53;15.80;99.90
34873;DHT22;21084;51.098;14.506;2022-09-09T06:29:23;16.30;99.90
34873;DHT22;21084;51.098;14.506;2022-09-09T06:31:51;16.80;99.90
34873;DHT22;21084;51.098;14.506;2022-09-09T06:34:20;16.90;99.90
34873;DHT22;21084;51.098;14.506;2022-09-09T06:36:50;17.20;99.90
34873;DHT22;21084;51.098;14.506;2022-09-09T06:39:19;17.20;99.90
34873;DHT22;21084;51.098;14.506;2022-09-09T06:41:48;17.40;99.90
34873;DHT22;21084;51.098;14.506;2022-09-09T06:44:23;17.60;99.90
34873;DHT22;21084;51.098;14.506;2022-09-09T06:46:56;18.00;99.90
34873;DHT22;21084;51.098;14.506;2022-09-09T06:49:25;18.50;99.90
34873;DHT22;21084;51.098;14.506;2022-09-09T06:51:53;18.80;99.90
34873;DHT22;21084;51.098;14.506;2022-09-09T06:54:21;19.10;99.90
34873;DHT22;21084;51.098;14.506;2022-09-09T06:56:50;18.80;99.90
34873;DHT22;21084;51.098;14.506;2022-09-09T06:59:18;18.90;99.90
34873;DHT22;21084;51.098;14.506;2022-09-09T07:01:47;19.20;99.90
34873;DHT22;21084;51.098;14.506;2022-09-09T07:04:21;19.00;99.90
34873;DHT22;21084;51.098;14.506;2022-09-09T07:06:49;18.80;99.90
34873;DHT22;21084;51.098;14.506;2022-09-09T07:09:19;18.70;99.90
34873;DHT22;21084;51.098;14.506;2022-09-09T07:11:50;18.50;99.90
34873;DHT22;21084;51.098;14.506;2022-09-09T07:14:19;19.00;99.90
34873;DHT22;21084;51.098;14.506;2022-09-09T07:16:50;19.40;99.90
34873;DHT22;21084;51.098;14.506;2022-09-09T07:19:24;19.90;99.90
34873;DHT22;21084;51.098;14.506;2022-09-09T07:21:52;20.10;99.90
34873;DHT22;21084;51.098;14.506;2022-09-09T07:24:21;19.60;99.90
34873;DHT22;21084;51.098;14.506;2022-09-09T07:26:49;19.70;99.90
34873;DHT22;21084;51.098;14.506;2022-09-09T07:29:18;19.70;99.90
34873;DHT22;21084;51.098;14.506;2022-09-09T07:31:49;19.40;99.90
34873;DHT22;21084;51.098;14.506;2022-09-09T07:34:17;19.90;99.90
34873;DHT22;21084;51.098;14.506;2022-09-09T07:36:46;20.30;99.90
34873;DHT22;21084;51.098;14.506;2022-09-09T07:39:16;20.40;99.90
34873;DHT22;21084;51.098;14.506;2022-09-09T07:41:45;21.00;99.90
34873;DHT22;21084;51.098;14.506;2022-09-09T07:44:15;21.60;99.90
34873;DHT22;21084;51.098;14.506;2022-09-09T07:46:44;22.10;99.90
34873;DHT22;21084;51.098;14.506;2022-09-09T07:49:14;22.20;99.90
34873;DHT22;21084;51.098;14.506;2022-09-09T07:51:45;22.10;99.90
34873;DHT22;21084;51.098;14.506;2022-09-09T07:54:14;22.80;99.90
34873;DHT22;21084;51.098;14.506;2022-09-09T07:56:42;23.90;99.90
34873;DHT22;21084;51.098;14.506;2022-09-09T07:59:10;24.00;99.90
34873;DHT22;21084;51.098;14.506;2022-09-09T08:01:41;24.50;99.90
34873;DHT22;21084;51.098;14.506;2022-09-09T08:04:11;24.60;99.90
34873;DHT22;21084;51.098;14.506;2022-09-09T08:06:44;24.10;99.90
34873;DHT22;21084;51.098;14.506;2022-09-09T08:09:13;23.50;99.90
34873;DHT22;21084;51.098;14.506;2022-09-09T08:11:42;23.30;99.90
34873;DHT22;21084;51.098;14.506;2022-09-09T08:14:11;23.50;99.90
34873;DHT22;21084;51.098;14.506;2022-09-09T08:16:41;23.70;99.90
34873;DHT22;21084;51.098;14.506;2022-09-09T08:19:09;24.10;99.90
34873;DHT22;21084;51.098;14.506;2022-09-09T08:21:39;24.20;99.90
34873;DHT22;21084;51.098;14.506;2022-09-09T08:24:10;23.90;99.90
34873;DHT22;21084;51.098;14.506;2022-09-09T08:26:40;23.30;99.90
34873;DHT22;21084;51.098;14.506;2022-09-09T08:29:10;23.60;99.90
34873;DHT22;21084;51.098;14.506;2022-09-09T08:31:40;24.00;99.90
34873;DHT22;21084;51.098;14.506;2022-09-09T08:34:09;24.50;99.90
34873;DHT22;21084;51.098;14.506;2022-09-09T08:36:39;24.10;99.90
34873;DHT22;21084;51.098;14.506;2022-09-09T08:39:11;24.40;99.90
34873;DHT22;21084;51.098;14.506;2022-09-09T08:44:42;26.20;99.90
34873;DHT22;21084;51.098;14.506;2022-09-09T08:47:19;25.60;99.90
34873;DHT22;21084;51.098;14.506;2022-09-09T08:50:01;24.50;99.90
34873;DHT22;21084;51.098;14.506;2022-09-09T08:52:38;24.30;99.90
34873;DHT22;21084;51.098;14.506;2022-09-09T08:55:20;23.90;99.90
34873;DHT22;21084;51.098;14.506;2022-09-09T08:57:52;23.60;99.90
34873;DHT22;21084;51.098;14.506;2022-09-09T09:00:21;22.90;99.90
34873;DHT22;21084;51.098;14.506;2022-09-09T09:02:54;22.20;99.90
34873;DHT22;21084;51.098;14.506;2022-09-09T09:05:28;22.80;99.90
34873;DHT22;21084;51.098;14.506;2022-09-09T09:08:03;23.50;99.90
34873;DHT22;21084;51.098;14.506;2022-09-09T09:10:44;24.70;99.90
34873;DHT22;21084;51.098;14.506;2022-09-09T09:13:20;24.50;99.90
34873;DHT22;21084;51.098;14.506;2022-09-09T09:15:54;25.10;99.90
34873;DHT22;21084;51.098;14.506;2022-09-09T09:18:24;25.60;99.90
34873;DHT22;21084;51.098;14.506;2022-09-09T09:20:59;24.60;99.90
34873;DHT22;21084;51.098;14.506;2022-09-09T09:23:36;23.30;99.90
34873;DHT22;21084;51.098;14.506;2022-09-09T09:26:09;23.70;99.90
34873;DHT22;21084;51.098;14.506;2022-09-09T09:28:39;23.80;99.90
34873;DHT22;21084;51.098;14.506;2022-09-09T09:31:10;25.20;99.90
34873;DHT22;21084;51.098;14.506;2022-09-09T09:33:45;26.00;99.90
34873;DHT22;21084;51.098;14.506;2022-09-09T09:36:15;25.90;99.90
34873;DHT22;21084;51.098;14.506;2022-09-09T09:38:55;24.90;99.90
34873;DHT22;21084;51.098;14.506;2022-09-09T09:41:46;24.90;99.90
34873;DHT22;21084;51.098;14.506;2022-09-09T09:44:26;27.40;99.90
34873;DHT22;21084;51.098;14.506;2022-09-09T09:47:06;27.70;99.90
34873;DHT22;21084;51.098;14.506;2022-09-09T09:49:34;27.30;99.90
34873;DHT22;21084;51.098;14.506;2022-09-09T09:52:03;25.30;99.90
34873;DHT22;21084;51.098;14.506;2022-09-09T09:54:33;24.60;99.90
34873;DHT22;21084;51.098;14.506;2022-09-09T09:57:11;23.90;99.90
34873;DHT22;21084;51.098;14.506;2022-09-09T09:59:39;22.80;99.90
34873;DHT22;21084;51.098;14.506;2022-09-09T10:02:16;21.90;99.90
34873;DHT22;21084;51.098;14.506;2022-09-09T10:04:45;21.60;99.90
34873;DHT22;21084;51.098;14.506;2022-09-09T10:07:18;21.20;99.90
34873;DHT22;21084;51.098;14.506;2022-09-09T10:09:50;20.70;99.90
34873;DHT22;21084;51.098;14.506;2022-09-09T10:12:30;20.50;99.90
34873;DHT22;21084;51.098;14.506;2022-09-09T10:15:29;20.40;99.90
34873;DHT22;21084;51.098;14.506;2022-09-09T10:18:12;21.30;99.90
34873;DHT22;21084;51.098;14.506;2022-09-09T10:20:48;21.30;99.90
34873;DHT22;21084;51.098;14.506;2022-09-09T10:23:41;22.10;99.90
34873;DHT22;21084;51.098;14.506;2022-09-09T10:26:21;22.80;99.90
34873;DHT22;21084;51.098;14.506;2022-09-09T10:29:20;22.80;99.90
34873;DHT22;21084;51.098;14.506;2022-09-09T10:31:57;22.90;99.90
34873;DHT22;21084;51.098;14.506;2022-09-09T10:34:45;23.30;99.90
34873;DHT22;21084;51.098;14.506;2022-09-09T10:37:34;23.10;99.90
34873;DHT22;21084;51.098;14.506;2022-09-09T10:40:20;22.60;99.90
34873;DHT22;21084;51.098;14.506;2022-09-09T10:42:54;22.50;99.90
34873;DHT22;21084;51.098;14.506;2022-09-09T10:45:32;21.70;99.90
34873;DHT22;21084;51.098;14.506;2022-09-09T10:48:24;21.50;99.90
34873;DHT22;21084;51.098;14.506;2022-09-09T10:51:06;21.80;99.90
34873;DHT22;21084;51.098;14.506;2022-09-09T10:53:48;21.50;99.90
34873;DHT22;21084;51.098;14.506;2022-09-09T10:56:20;21.80;99.90
34873;DHT22;21084;51.098;14.506;2022-09-09T10:58:52;22.60;99.90
34873;DHT22;21084;51.098;14.506;2022-09-09T11:01:25;23.00;99.90
34873;DHT22;21084;51.098;14.506;2022-09-09T11:03:56;23.50;99.90
34873;DHT22;21084;51.098;14.506;2022-09-09T11:06:29;22.90;99.90
34873;DHT22;21084;51.098;14.506;2022-09-09T11:09:00;23.10;99.90
34873;DHT22;21084;51.098;14.506;2022-09-09T11:11:33;22.90;99.90
34873;DHT22;21084;51.098;14.506;2022-09-09T11:14:05;22.60;99.90
34873;DHT22;21084;51.098;14.506;2022-09-09T11:16:40;22.60;99.90
34873;DHT22;21084;51.098;14.506;2022-09-09T11:19:15;22.70;99.90
34873;DHT22;21084;51.098;14.506;2022-09-09T11:21:46;22.50;99.90
34873;DHT22;21084;51.098;14.506;2022-09-09T11:24:20;22.90;99.90
34873;DHT22;21084;51.098;14.506;2022-09-09T11:26:53;22.70;99.90
34873;DHT22;21084;51.098;14.506;2022-09-09T11:29:40;24.20;99.90
34873;DHT22;21084;51.098;14.506;2022-09-09T11:32:26;26.20;99.90
34873;DHT22;21084;51.098;14.506;2022-09-09T11:35:06;27.60;99.90
34873;DHT22;21084;51.098;14.506;2022-09-09T11:37:56;28.10;99.90
34873;DHT22;21084;51.098;14.506;2022-09-09T11:40:30;28.10;99.90
34873;DHT22;21084;51.098;14.506;2022-09-09T11:43:05;27.40;99.90
34873;DHT22;21084;51.098;14.506;2022-09-09T11:45:34;26.80;99.90
34873;DHT22;21084;51.098;14.506;2022-09-09T11:48:04;26.60;99.90
34873;DHT22;21084;51.098;14.506;2022-09-09T11:50:35;27.30;99.90
34873;DHT22;21084;51.098;14.506;2022-09-09T11:53:20;28.10;99.90
34873;DHT22;21084;51.098;14.506;2022-09-09T11:56:06;27.50;99.90
34873;DHT22;21084;51.098;14.506;2022-09-09T11:58:38;28.70;99.60
34873;DHT22;21084;51.098;14.506;2022-09-09T12:01:27;28.30;99.30
34873;DHT22;21084;51.098;14.506;2022-09-09T12:04:10;28.20;98.80
34873;DHT22;21084;51.098;14.506;2022-09-09T12:06:43;28.30;97.60
34873;DHT22;21084;51.098;14.506;2022-09-09T12:09:23;28.30;97.00
34873;DHT22;21084;51.098;14.506;2022-09-09T12:11:53;28.10;96.30
34873;DHT22;21084;51.098;14.506;2022-09-09T12:14:37;26.60;98.00
34873;DHT22;21084;51.098;14.506;2022-09-09T12:17:16;27.30;97.70
34873;DHT22;21084;51.098;14.506;2022-09-09T12:20:01;27.60;97.00
34873;DHT22;21084;51.098;14.506;2022-09-09T12:22:35;27.70;95.70
34873;DHT22;21084;51.098;14.506;2022-09-09T12:25:09;28.40;98.30
34873;DHT22;21084;51.098;14.506;2022-09-09T12:27:59;27.40;98.10
34873;DHT22;21084;51.098;14.506;2022-09-09T12:30:31;28.40;95.90
34873;DHT22;21084;51.098;14.506;2022-09-09T12:33:02;28.20;96.60
34873;DHT22;21084;51.098;14.506;2022-09-09T12:35:36;28.10;94.60
34873;DHT22;21084;51.098;14.506;2022-09-09T12:38:06;27.90;96.50
34873;DHT22;21084;51.098;14.506;2022-09-09T12:40:38;29.10;95.80
34873;DHT22;21084;51.098;14.506;2022-09-09T12:43:17;29.70;91.90
34873;DHT22;21084;51.098;14.506;2022-09-09T12:45:46;30.10;91.50
34873;DHT22;21084;51.098;14.506;2022-09-09T12:48:18;30.50;91.60
34873;DHT22;21084;51.098;14.506;2022-09-09T12:50:50;30.40;87.20
34873;DHT22;21084;51.098;14.506;2022-09-09T12:53:22;28.40;87.50
34873;DHT22;21084;51.098;14.506;2022-09-09T12:55:56;29.30;87.60
34873;DHT22;21084;51.098;14.506;2022-09-09T12:58:25;28.50;89.70
34873;DHT22;21084;51.098;14.506;2022-09-09T13:00:55;30.00;88.30
34873;DHT22;21084;51.098;14.506;2022-09-09T13:03:24;28.40;89.70
34873;DHT22;21084;51.098;14.506;2022-09-09T13:05:58;26.60;91.40
34873;DHT22;21084;51.098;14.506;2022-09-09T13:08:27;26.70;90.50
34873;DHT22;21084;51.098;14.506;2022-09-09T13:10:57;26.70;90.10
34873;DHT22;21084;51.098;14.506;2022-09-09T13:13:31;26.70;92.50
34873;DHT22;21084;51.098;14.506;2022-09-09T13:16:03;25.90;93.20
34873;DHT22;21084;51.098;14.506;2022-09-09T13:18:36;25.10;93.40
34873;DHT22;21084;51.098;14.506;2022-09-09T13:21:06;25.20;95.60
34873;DHT22;21084;51.098;14.506;2022-09-09T13:23:35;25.10;95.30
34873;DHT22;21084;51.098;14.506;2022-09-09T13:26:06;25.40;95.10
34873;DHT22;21084;51.098;14.506;2022-09-09T13:28:34;24.50;95.20
34873;DHT22;21084;51.098;14.506;2022-09-09T13:31:05;23.20;97.00
34873;DHT22;21084;51.098;14.506;2022-09-09T13:33:35;22.40;98.80
34873;DHT22;21084;51.098;14.506;2022-09-09T13:36:07;22.20;99.90
34873;DHT22;21084;51.098;14.506;2022-09-09T13:38:38;21.50;99.90
34873;DHT22;21084;51.098;14.506;2022-09-09T13:41:07;21.30;99.90
34873;DHT22;21084;51.098;14.506;2022-09-09T13:43:36;21.60;99.90
34873;DHT22;21084;51.098;14.506;2022-09-09T13:46:21;21.00;99.90
34873;DHT22;21084;51.098;14.506;2022-09-09T13:48:55;21.20;99.90
34873;DHT22;21084;51.098;14.506;2022-09-09T13:51:32;20.70;99.90
34873;DHT22;21084;51.098;14.506;2022-09-09T13:54:01;21.70;99.90
34873;DHT22;21084;51.098;14.506;2022-09-09T13:56:29;23.40;99.90
34873;DHT22;21084;51.098;14.506;2022-09-09T13:58:56;25.00;99.90
34873;DHT22;21084;51.098;14.506;2022-09-09T14:01:25;26.70;99.90
34873;DHT22;21084;51.098;14.506;2022-09-09T14:03:55;26.80;99.90
34873;DHT22;21084;51.098;14.506;2022-09-09T14:06:24;26.80;99.80
34873;DHT22;21084;51.098;14.506;2022-09-09T14:08:53;27.90;98.70
34873;DHT22;21084;51.098;14.506;2022-09-09T14:11:21;28.30;96.70
34873;DHT22;21084;51.098;14.506;2022-09-09T14:13:49;28.00;95.90
34873;DHT22;21084;51.098;14.506;2022-09-09T14:16:18;27.90;94.60
34873;DHT22;21084;51.098;14.506;2022-09-09T14:18:47;28.20;96.00
34873;DHT22;21084;51.098;14.506;2022-09-09T14:21:15;29.20;95.50
34873;DHT22;21084;51.098;14.506;2022-09-09T14:23:43;29.50;92.10
34873;DHT22;21084;51.098;14.506;2022-09-09T14:26:12;29.40;91.20
34873;DHT22;21084;51.098;14.506;2022-09-09T14:28:40;28.50;91.50
34873;DHT22;21084;51.098;14.506;2022-09-09T14:31:25;28.90;92.30
34873;DHT22;21084;51.098;14.506;2022-09-09T14:33:53;28.20;92.80
34873;DHT22;21084;51.098;14.506;2022-09-09T14:36:21;27.60;93.70
34873;DHT22;21084;51.098;14.506;2022-09-09T14:38:49;27.70;94.30
34873;DHT22;21084;51.098;14.506;2022-09-09T14:41:19;28.30;94.10
34873;DHT22;21084;51.098;14.506;2022-09-09T14:43:49;28.50;93.00
34873;DHT22;21084;51.098;14.506;2022-09-09T14:46:19;27.90;93.20
34873;DHT22;21084;51.098;14.506;2022-09-09T14:48:47;27.00;95.00
34873;DHT22;21084;51.098;14.506;2022-09-09T14:51:17;26.00;96.90
34873;DHT22;21084;51.098;14.506;2022-09-09T14:54:10;25.30;97.50
34873;DHT22;21084;51.098;14.506;2022-09-09T14:56:40;24.20;99.90
34873;DHT22;21084;51.098;14.506;2022-09-09T14:59:08;23.40;99.90
34873;DHT22;21084;51.098;14.506;2022-09-09T15:01:35;23.20;99.90
34873;DHT22;21084;51.098;14.506;2022-09-09T15:04:05;22.70;99.90
34873;DHT22;21084;51.098;14.506;2022-09-09T15:06:35;22.40;99.90
34873;DHT22;21084;51.098;14.506;2022-09-09T15:09:05;22.30;99.90
34873;DHT22;21084;51.098;14.506;2022-09-09T15:11:35;22.20;99.90
34873;DHT22;21084;51.098;14.506;2022-09-09T15:14:07;22.20;99.90
34873;DHT22;21084;51.098;14.506;2022-09-09T15:16:36;22.20;99.90
34873;DHT22;21084;51.098;14.506;2022-09-09T15:19:05;21.50;99.90
34873;DHT22;21084;51.098;14.506;2022-09-09T15:21:35;21.50;99.90
34873;DHT22;21084;51.098;14.506;2022-09-09T15:24:04;21.40;99.90
34873;DHT22;21084;51.098;14.506;2022-09-09T15:26:34;21.50;99.90
34873;DHT22;21084;51.098;14.506;2022-09-09T15:29:06;21.50;99.90
34873;DHT22;21084;51.098;14.506;2022-09-09T15:31:35;21.60;99.90
34873;DHT22;21084;51.098;14.506;2022-09-09T15:34:06;21.40;99.90
34873;DHT22;21084;51.098;14.506;2022-09-09T15:36:35;21.10;99.90
34873;DHT22;21084;51.098;14.506;2022-09-09T15:39:06;20.70;99.90
34873;DHT22;21084;51.098;14.506;2022-09-09T15:41:34;20.30;99.90
34873;DHT22;21084;51.098;14.506;2022-09-09T15:44:02;20.10;99.90
34873;DHT22;21084;51.098;14.506;2022-09-09T15:46:34;19.40;99.90
34873;DHT22;21084;51.098;14.506;2022-09-09T15:49:05;19.00;99.90
34873;DHT22;21084;51.098;14.506;2022-09-09T15:51:33;18.80;99.90
34873;DHT22;21084;51.098;14.506;2022-09-09T15:54:10;18.90;99.90